sensor_id;sensor_type;location;lat;lon;timestamp;P1;durP1;ratioP1;P2;durP2;ratioP2
32319;SDS011;19080;51.750;5.888;2024-03-29T00:00:40;3.50;;;0.82;;
32319;SDS011;19080;51.750;5.888;2024-03-29T00:03:07;5.47;;;1.00;;
32319;SDS011;19080;51.750;5.888;2024-03-29T00:05:33;1.95;;;0.80;;
32319;SDS011;19080;51.750;5.888;2024-03-29T00:07:59;2.92;;;0.88;;
32319;SDS011;19080;51.750;5.888;2024-03-29T00:10:25;2.75;;;1.23;;
32319;SDS011;19080;51.750;5.888;2024-03-29T00:12:50;6.03;;;1.33;;
32319;SDS011;19080;51.750;5.888;2024-03-29T00:15:16;4.03;;;1.15;;
32319;SDS011;19080;51.750;5.888;2024-03-29T00:17:42;4.03;;;1.20;;
32319;SDS011;19080;51.750;5.888;2024-03-29T00:20:08;4.18;;;1.00;;
32319;SDS011;19080;51.750;5.888;2024-03-29T00:22:34;6.13;;;0.88;;
32319;SDS011;19080;51.750;5.888;2024-03-29T00:25:00;3.70;;;1.10;;
32319;SDS011;19080;51.750;5.888;2024-03-29T00:27:26;6.78;;;1.70;;
32319;SDS011;19080;51.750;5.888;2024-03-29T00:29:53;7.97;;;1.45;;
32319;SDS011;19080;51.750;5.888;2024-03-29T00:32:19;4.45;;;1.75;;
32319;SDS011;19080;51.750;5.888;2024-03-29T00:34:45;2.53;;;1.10;;
32319;SDS011;19080;51.750;5.888;2024-03-29T00:37:11;4.68;;;0.98;;
32319;SDS011;19080;51.750;5.888;2024-03-29T00:39:37;5.05;;;0.90;;
32319;SDS011;19080;51.750;5.888;2024-03-29T00:42:03;6.40;;;1.25;;
32319;SDS011;19080;51.750;5.888;2024-03-29T00:44:32;4.93;;;1.20;;
32319;SDS011;19080;51.750;5.888;2024-03-29T00:46:57;4.85;;;0.93;;
32319;SDS011;19080;51.750;5.888;2024-03-29T00:49:23;5.00;;;0.70;;
32319;SDS011;19080;51.750;5.888;2024-03-29T00:51:49;4.78;;;1.00;;
32319;SDS011;19080;51.750;5.888;2024-03-29T00:54:14;2.38;;;1.02;;
32319;SDS011;19080;51.750;5.888;2024-03-29T00:56:40;4.57;;;0.98;;
32319;SDS011;19080;51.750;5.888;2024-03-29T00:59:06;2.70;;;0.77;;
32319;SDS011;19080;51.750;5.888;2024-03-29T01:01:31;6.43;;;1.65;;
32319;SDS011;19080;51.750;5.888;2024-03-29T01:03:58;3.15;;;0.80;;
32319;SDS011;19080;51.750;5.888;2024-03-29T01:06:23;2.40;;;0.80;;
32319;SDS011;19080;51.750;5.888;2024-03-29T01:08:49;3.83;;;0.75;;
32319;SDS011;19080;51.750;5.888;2024-03-29T01:11:15;4.60;;;0.80;;
32319;SDS011;19080;51.750;5.888;2024-03-29T01:13:40;3.80;;;1.27;;
32319;SDS011;19080;51.750;5.888;2024-03-29T01:16:06;5.05;;;0.90;;
32319;SDS011;19080;51.750;5.888;2024-03-29T01:18:32;3.85;;;0.82;;
32319;SDS011;19080;51.750;5.888;2024-03-29T01:20:59;3.65;;;1.00;;
32319;SDS011;19080;51.750;5.888;2024-03-29T01:23:24;2.60;;;1.00;;
32319;SDS011;19080;51.750;5.888;2024-03-29T01:25:50;2.95;;;0.95;;
32319;SDS011;19080;51.750;5.888;2024-03-29T01:28:16;3.72;;;0.68;;
32319;SDS011;19080;51.750;5.888;2024-03-29T01:30:41;2.92;;;0.90;;
32319;SDS011;19080;51.750;5.888;2024-03-29T01:33:07;3.80;;;0.90;;
32319;SDS011;19080;51.750;5.888;2024-03-29T01:35:33;1.48;;;0.80;;
32319;SDS011;19080;51.750;5.888;2024-03-29T01:37:58;3.05;;;0.80;;
32319;SDS011;19080;51.750;5.888;2024-03-29T01:40:24;3.15;;;0.95;;
32319;SDS011;19080;51.750;5.888;2024-03-29T01:42:53;3.40;;;0.80;;
32319;SDS011;19080;51.750;5.888;2024-03-29T01:45:19;5.85;;;1.40;;
32319;SDS011;19080;51.750;5.888;2024-03-29T01:47:45;1.98;;;0.70;;
32319;SDS011;19080;51.750;5.888;2024-03-29T01:50:12;1.65;;;0.60;;
32319;SDS011;19080;51.750;5.888;2024-03-29T01:52:38;4.63;;;0.98;;
32319;SDS011;19080;51.750;5.888;2024-03-29T01:55:05;3.17;;;1.25;;
32319;SDS011;19080;51.750;5.888;2024-03-29T01:57:31;3.85;;;0.75;;
32319;SDS011;19080;51.750;5.888;2024-03-29T01:59:56;4.00;;;0.90;;
32319;SDS011;19080;51.750;5.888;2024-03-29T02:02:23;5.50;;;1.08;;
32319;SDS011;19080;51.750;5.888;2024-03-29T02:04:49;3.97;;;0.80;;
32319;SDS011;19080;51.750;5.888;2024-03-29T02:07:14;2.45;;;0.68;;
32319;SDS011;19080;51.750;5.888;2024-03-29T02:09:40;2.92;;;0.90;;
32319;SDS011;19080;51.750;5.888;2024-03-29T02:12:07;2.40;;;0.85;;
32319;SDS011;19080;51.750;5.888;2024-03-29T02:14:33;5.03;;;1.00;;
32319;SDS011;19080;51.750;5.888;2024-03-29T02:16:58;3.30;;;0.90;;
32319;SDS011;19080;51.750;5.888;2024-03-29T02:19:24;4.25;;;1.10;;
32319;SDS011;19080;51.750;5.888;2024-03-29T02:21:50;3.55;;;1.13;;
32319;SDS011;19080;51.750;5.888;2024-03-29T02:24:18;3.35;;;0.73;;
32319;SDS011;19080;51.750;5.888;2024-03-29T02:26:44;1.83;;;0.57;;
32319;SDS011;19080;51.750;5.888;2024-03-29T02:29:10;4.18;;;0.82;;
32319;SDS011;19080;51.750;5.888;2024-03-29T02:31:36;3.13;;;0.60;;
32319;SDS011;19080;51.750;5.888;2024-03-29T02:34:01;6.15;;;1.55;;
32319;SDS011;19080;51.750;5.888;2024-03-29T02:36:27;4.35;;;0.88;;
32319;SDS011;19080;51.750;5.888;2024-03-29T02:38:53;5.47;;;0.82;;
32319;SDS011;19080;51.750;5.888;2024-03-29T02:41:18;3.55;;;0.95;;
32319;SDS011;19080;51.750;5.888;2024-03-29T02:43:44;5.75;;;1.10;;
32319;SDS011;19080;51.750;5.888;2024-03-29T02:46:10;2.90;;;0.90;;
32319;SDS011;19080;51.750;5.888;2024-03-29T02:48:35;3.00;;;0.82;;
32319;SDS011;19080;51.750;5.888;2024-03-29T02:51:01;4.30;;;0.93;;
32319;SDS011;19080;51.750;5.888;2024-03-29T02:53:27;5.47;;;1.13;;
32319;SDS011;19080;51.750;5.888;2024-03-29T02:55:52;4.53;;;1.00;;
32319;SDS011;19080;51.750;5.888;2024-03-29T02:58:18;3.78;;;1.10;;
32319;SDS011;19080;51.750;5.888;2024-03-29T03:00:43;4.60;;;0.70;;
32319;SDS011;19080;51.750;5.888;2024-03-29T03:03:09;3.22;;;0.82;;
32319;SDS011;19080;51.750;5.888;2024-03-29T03:05:35;3.90;;;1.25;;
32319;SDS011;19080;51.750;5.888;2024-03-29T03:08:00;3.72;;;0.80;;
32319;SDS011;19080;51.750;5.888;2024-03-29T03:10:45;2.05;;;0.82;;
32319;SDS011;19080;51.750;5.888;2024-03-29T03:13:29;4.38;;;1.08;;
32319;SDS011;19080;51.750;5.888;2024-03-29T03:15:55;3.42;;;0.60;;
32319;SDS011;19080;51.750;5.888;2024-03-29T03:18:21;6.35;;;1.00;;
32319;SDS011;19080;51.750;5.888;2024-03-29T03:20:51;2.78;;;0.80;;
32319;SDS011;19080;51.750;5.888;2024-03-29T03:23:19;1.88;;;0.68;;
32319;SDS011;19080;51.750;5.888;2024-03-29T03:25:46;3.85;;;1.08;;
32319;SDS011;19080;51.750;5.888;2024-03-29T03:28:18;3.90;;;1.17;;
32319;SDS011;19080;51.750;5.888;2024-03-29T03:30:44;1.20;;;0.60;;
32319;SDS011;19080;51.750;5.888;2024-03-29T03:33:10;3.42;;;1.00;;
32319;SDS011;19080;51.750;5.888;2024-03-29T03:35:35;3.55;;;0.85;;
32319;SDS011;19080;51.750;5.888;2024-03-29T03:38:01;4.88;;;0.80;;
32319;SDS011;19080;51.750;5.888;2024-03-29T03:40:27;1.52;;;0.80;;
32319;SDS011;19080;51.750;5.888;2024-03-29T03:42:53;4.20;;;0.90;;
32319;SDS011;19080;51.750;5.888;2024-03-29T03:45:18;2.15;;;0.70;;
32319;SDS011;19080;51.750;5.888;2024-03-29T03:47:44;1.40;;;0.57;;
32319;SDS011;19080;51.750;5.888;2024-03-29T03:50:09;4.15;;;1.00;;
32319;SDS011;19080;51.750;5.888;2024-03-29T03:52:35;2.03;;;0.63;;
32319;SDS011;19080;51.750;5.888;2024-03-29T03:55:01;1.70;;;0.73;;
32319;SDS011;19080;51.750;5.888;2024-03-29T03:57:26;2.63;;;0.80;;
32319;SDS011;19080;51.750;5.888;2024-03-29T03:59:52;1.95;;;0.50;;
32319;SDS011;19080;51.750;5.888;2024-03-29T04:02:17;2.50;;;0.70;;
32319;SDS011;19080;51.750;5.888;2024-03-29T04:04:46;2.05;;;0.55;;
32319;SDS011;19080;51.750;5.888;2024-03-29T04:07:13;1.55;;;0.80;;
32319;SDS011;19080;51.750;5.888;2024-03-29T04:09:38;2.28;;;0.82;;
32319;SDS011;19080;51.750;5.888;2024-03-29T04:12:04;2.35;;;0.73;;
32319;SDS011;19080;51.750;5.888;2024-03-29T04:14:30;1.55;;;0.60;;
32319;SDS011;19080;51.750;5.888;2024-03-29T04:16:55;2.05;;;0.80;;
32319;SDS011;19080;51.750;5.888;2024-03-29T04:19:21;2.72;;;0.65;;
32319;SDS011;19080;51.750;5.888;2024-03-29T04:21:46;2.38;;;0.75;;
32319;SDS011;19080;51.750;5.888;2024-03-29T04:24:12;1.90;;;0.70;;
32319;SDS011;19080;51.750;5.888;2024-03-29T04:26:38;2.30;;;0.50;;
32319;SDS011;19080;51.750;5.888;2024-03-29T04:29:04;4.13;;;0.95;;
32319;SDS011;19080;51.750;5.888;2024-03-29T04:31:30;2.08;;;0.80;;
32319;SDS011;19080;51.750;5.888;2024-03-29T04:33:56;1.80;;;0.88;;
32319;SDS011;19080;51.750;5.888;2024-03-29T04:36:22;3.53;;;0.85;;
32319;SDS011;19080;51.750;5.888;2024-03-29T04:38:47;5.47;;;0.85;;
32319;SDS011;19080;51.750;5.888;2024-03-29T04:41:13;3.88;;;1.00;;
32319;SDS011;19080;51.750;5.888;2024-03-29T04:43:39;4.70;;;1.92;;
32319;SDS011;19080;51.750;5.888;2024-03-29T04:46:12;2.90;;;1.00;;
32319;SDS011;19080;51.750;5.888;2024-03-29T04:48:39;8.60;;;1.02;;
32319;SDS011;19080;51.750;5.888;2024-03-29T04:51:07;2.67;;;0.75;;
32319;SDS011;19080;51.750;5.888;2024-03-29T04:53:35;4.38;;;0.80;;
32319;SDS011;19080;51.750;5.888;2024-03-29T04:56:02;1.98;;;0.95;;
32319;SDS011;19080;51.750;5.888;2024-03-29T04:58:28;2.00;;;0.93;;
32319;SDS011;19080;51.750;5.888;2024-03-29T05:00:53;2.92;;;1.00;;
32319;SDS011;19080;51.750;5.888;2024-03-29T05:03:20;2.03;;;0.82;;
32319;SDS011;19080;51.750;5.888;2024-03-29T05:05:46;6.15;;;1.00;;
32319;SDS011;19080;51.750;5.888;2024-03-29T05:08:12;4.50;;;1.08;;
32319;SDS011;19080;51.750;5.888;2024-03-29T05:10:39;2.30;;;0.90;;
32319;SDS011;19080;51.750;5.888;2024-03-29T05:13:04;3.22;;;1.02;;
32319;SDS011;19080;51.750;5.888;2024-03-29T05:15:30;2.97;;;0.85;;
32319;SDS011;19080;51.750;5.888;2024-03-29T05:17:56;3.92;;;1.00;;
32319;SDS011;19080;51.750;5.888;2024-03-29T05:20:22;3.28;;;0.80;;
32319;SDS011;19080;51.750;5.888;2024-03-29T05:22:48;5.40;;;0.90;;
32319;SDS011;19080;51.750;5.888;2024-03-29T05:25:13;2.72;;;1.02;;
32319;SDS011;19080;51.750;5.888;2024-03-29T05:27:39;2.97;;;1.30;;
32319;SDS011;19080;51.750;5.888;2024-03-29T05:30:05;2.95;;;0.70;;
32319;SDS011;19080;51.750;5.888;2024-03-29T05:32:31;2.85;;;0.82;;
32319;SDS011;19080;51.750;5.888;2024-03-29T05:34:57;3.00;;;0.85;;
32319;SDS011;19080;51.750;5.888;2024-03-29T05:37:23;3.28;;;0.70;;
32319;SDS011;19080;51.750;5.888;2024-03-29T05:39:51;5.53;;;0.60;;
32319;SDS011;19080;51.750;5.888;2024-03-29T05:42:27;2.92;;;0.43;;
32319;SDS011;19080;51.750;5.888;2024-03-29T05:44:54;2.63;;;0.82;;
32319;SDS011;19080;51.750;5.888;2024-03-29T05:47:20;1.88;;;0.60;;
32319;SDS011;19080;51.750;5.888;2024-03-29T05:49:48;2.05;;;0.65;;
32319;SDS011;19080;51.750;5.888;2024-03-29T05:52:15;1.10;;;0.60;;
32319;SDS011;19080;51.750;5.888;2024-03-29T05:54:42;1.75;;;0.68;;
32319;SDS011;19080;51.750;5.888;2024-03-29T05:57:08;2.13;;;0.70;;
32319;SDS011;19080;51.750;5.888;2024-03-29T05:59:34;1.85;;;0.50;;
32319;SDS011;19080;51.750;5.888;2024-03-29T06:02:00;1.48;;;0.52;;
32319;SDS011;19080;51.750;5.888;2024-03-29T06:04:26;2.35;;;0.85;;
32319;SDS011;19080;51.750;5.888;2024-03-29T06:07:04;3.30;;;0.60;;
32319;SDS011;19080;51.750;5.888;2024-03-29T06:11:58;1.50;;;0.70;;
32319;SDS011;19080;51.750;5.888;2024-03-29T06:14:25;1.17;;;0.88;;
32319;SDS011;19080;51.750;5.888;2024-03-29T06:17:10;1.85;;;0.82;;
32319;SDS011;19080;51.750;5.888;2024-03-29T06:19:49;3.28;;;1.08;;
32319;SDS011;19080;51.750;5.888;2024-03-29T06:22:16;5.30;;;1.00;;
32319;SDS011;19080;51.750;5.888;2024-03-29T06:24:43;4.03;;;1.30;;
32319;SDS011;19080;51.750;5.888;2024-03-29T06:27:10;2.20;;;0.95;;
32319;SDS011;19080;51.750;5.888;2024-03-29T06:29:36;3.00;;;0.95;;
32319;SDS011;19080;51.750;5.888;2024-03-29T06:32:01;3.03;;;0.93;;
32319;SDS011;19080;51.750;5.888;2024-03-29T06:34:31;1.58;;;0.90;;
32319;SDS011;19080;51.750;5.888;2024-03-29T06:36:57;3.65;;;0.88;;
32319;SDS011;19080;51.750;5.888;2024-03-29T06:39:22;3.05;;;0.73;;
32319;SDS011;19080;51.750;5.888;2024-03-29T06:41:48;3.15;;;0.80;;
32319;SDS011;19080;51.750;5.888;2024-03-29T06:44:14;5.75;;;1.33;;
32319;SDS011;19080;51.750;5.888;2024-03-29T06:46:39;4.22;;;1.00;;
32319;SDS011;19080;51.750;5.888;2024-03-29T06:49:05;2.30;;;0.82;;
32319;SDS011;19080;51.750;5.888;2024-03-29T06:51:31;3.20;;;1.20;;
32319;SDS011;19080;51.750;5.888;2024-03-29T06:53:57;0.95;;;0.55;;
32319;SDS011;19080;51.750;5.888;2024-03-29T06:56:22;2.15;;;0.90;;
32319;SDS011;19080;51.750;5.888;2024-03-29T06:58:48;1.75;;;0.80;;
32319;SDS011;19080;51.750;5.888;2024-03-29T07:01:14;1.88;;;0.82;;
32319;SDS011;19080;51.750;5.888;2024-03-29T07:03:40;2.67;;;0.77;;
32319;SDS011;19080;51.750;5.888;2024-03-29T07:06:06;1.77;;;1.00;;
32319;SDS011;19080;51.750;5.888;2024-03-29T07:08:31;1.73;;;0.77;;
32319;SDS011;19080;51.750;5.888;2024-03-29T07:11:00;2.95;;;1.00;;
32319;SDS011;19080;51.750;5.888;2024-03-29T07:13:28;2.58;;;0.80;;
32319;SDS011;19080;51.750;5.888;2024-03-29T07:15:57;1.38;;;0.70;;
32319;SDS011;19080;51.750;5.888;2024-03-29T07:18:23;2.72;;;0.77;;
32319;SDS011;19080;51.750;5.888;2024-03-29T07:20:49;1.77;;;0.63;;
32319;SDS011;19080;51.750;5.888;2024-03-29T07:23:16;1.23;;;0.88;;
32319;SDS011;19080;51.750;5.888;2024-03-29T07:25:44;1.90;;;0.90;;
32319;SDS011;19080;51.750;5.888;2024-03-29T07:28:10;2.58;;;0.90;;
32319;SDS011;19080;51.750;5.888;2024-03-29T07:30:43;3.88;;;0.98;;
32319;SDS011;19080;51.750;5.888;2024-03-29T07:33:09;2.03;;;1.08;;
32319;SDS011;19080;51.750;5.888;2024-03-29T07:35:36;2.38;;;0.73;;
32319;SDS011;19080;51.750;5.888;2024-03-29T07:38:03;3.13;;;1.20;;
32319;SDS011;19080;51.750;5.888;2024-03-29T07:40:29;3.60;;;0.98;;
32319;SDS011;19080;51.750;5.888;2024-03-29T07:42:54;2.83;;;1.33;;
32319;SDS011;19080;51.750;5.888;2024-03-29T07:45:21;2.03;;;0.90;;
32319;SDS011;19080;51.750;5.888;2024-03-29T07:47:46;4.78;;;1.10;;
32319;SDS011;19080;51.750;5.888;2024-03-29T07:50:18;4.25;;;1.77;;
32319;SDS011;19080;51.750;5.888;2024-03-29T07:52:44;3.55;;;1.23;;
32319;SDS011;19080;51.750;5.888;2024-03-29T07:55:10;1.55;;;0.60;;
32319;SDS011;19080;51.750;5.888;2024-03-29T07:57:36;3.15;;;1.10;;
32319;SDS011;19080;51.750;5.888;2024-03-29T08:00:02;2.08;;;1.15;;
32319;SDS011;19080;51.750;5.888;2024-03-29T08:02:31;4.88;;;1.25;;
32319;SDS011;19080;51.750;5.888;2024-03-29T08:04:57;1.45;;;0.82;;
32319;SDS011;19080;51.750;5.888;2024-03-29T08:07:24;2.35;;;0.90;;
32319;SDS011;19080;51.750;5.888;2024-03-29T08:09:49;6.18;;;1.20;;
32319;SDS011;19080;51.750;5.888;2024-03-29T08:12:18;1.85;;;0.82;;
32319;SDS011;19080;51.750;5.888;2024-03-29T08:14:43;3.58;;;1.20;;
32319;SDS011;19080;51.750;5.888;2024-03-29T08:17:09;1.77;;;1.08;;
32319;SDS011;19080;51.750;5.888;2024-03-29T08:19:35;2.55;;;1.08;;
32319;SDS011;19080;51.750;5.888;2024-03-29T08:22:01;2.20;;;1.10;;
32319;SDS011;19080;51.750;5.888;2024-03-29T08:24:27;4.00;;;1.00;;
32319;SDS011;19080;51.750;5.888;2024-03-29T08:26:53;3.75;;;1.27;;
32319;SDS011;19080;51.750;5.888;2024-03-29T08:29:19;4.80;;;1.48;;
32319;SDS011;19080;51.750;5.888;2024-03-29T08:31:45;4.18;;;1.20;;
32319;SDS011;19080;51.750;5.888;2024-03-29T08:34:10;3.67;;;1.17;;
32319;SDS011;19080;51.750;5.888;2024-03-29T08:36:38;4.88;;;1.13;;
32319;SDS011;19080;51.750;5.888;2024-03-29T08:39:04;1.38;;;0.80;;
32319;SDS011;19080;51.750;5.888;2024-03-29T08:41:30;3.40;;;0.93;;
32319;SDS011;19080;51.750;5.888;2024-03-29T08:43:56;3.58;;;0.95;;
32319;SDS011;19080;51.750;5.888;2024-03-29T08:46:22;4.07;;;1.02;;
32319;SDS011;19080;51.750;5.888;2024-03-29T08:48:48;1.50;;;0.80;;
32319;SDS011;19080;51.750;5.888;2024-03-29T08:51:13;2.03;;;0.90;;
32319;SDS011;19080;51.750;5.888;2024-03-29T08:53:40;3.30;;;1.10;;
32319;SDS011;19080;51.750;5.888;2024-03-29T08:56:06;2.85;;;1.13;;
32319;SDS011;19080;51.750;5.888;2024-03-29T08:58:32;3.42;;;0.90;;
32319;SDS011;19080;51.750;5.888;2024-03-29T09:00:57;4.03;;;1.00;;
32319;SDS011;19080;51.750;5.888;2024-03-29T09:03:23;3.33;;;1.42;;
32319;SDS011;19080;51.750;5.888;2024-03-29T09:05:49;2.75;;;1.33;;
32319;SDS011;19080;51.750;5.888;2024-03-29T09:08:16;3.53;;;1.25;;
32319;SDS011;19080;51.750;5.888;2024-03-29T09:10:43;3.58;;;1.25;;
32319;SDS011;19080;51.750;5.888;2024-03-29T09:13:08;4.18;;;1.23;;
32319;SDS011;19080;51.750;5.888;2024-03-29T09:15:36;3.70;;;1.52;;
32319;SDS011;19080;51.750;5.888;2024-03-29T09:18:02;4.32;;;1.60;;
32319;SDS011;19080;51.750;5.888;2024-03-29T09:20:35;2.50;;;1.00;;
32319;SDS011;19080;51.750;5.888;2024-03-29T09:23:01;1.75;;;1.08;;
32319;SDS011;19080;51.750;5.888;2024-03-29T09:25:27;3.25;;;1.48;;
32319;SDS011;19080;51.750;5.888;2024-03-29T09:27:53;4.28;;;1.13;;
32319;SDS011;19080;51.750;5.888;2024-03-29T09:30:18;1.50;;;1.20;;
32319;SDS011;19080;51.750;5.888;2024-03-29T09:32:45;2.45;;;1.10;;
32319;SDS011;19080;51.750;5.888;2024-03-29T09:35:11;7.10;;;1.42;;
32319;SDS011;19080;51.750;5.888;2024-03-29T09:37:36;3.03;;;1.20;;
32319;SDS011;19080;51.750;5.888;2024-03-29T09:40:03;3.10;;;1.25;;
32319;SDS011;19080;51.750;5.888;2024-03-29T09:42:30;6.97;;;1.52;;
32319;SDS011;19080;51.750;5.888;2024-03-29T09:44:58;1.60;;;1.33;;
32319;SDS011;19080;51.750;5.888;2024-03-29T09:47:26;2.63;;;1.17;;
32319;SDS011;19080;51.750;5.888;2024-03-29T09:49:52;2.67;;;1.73;;
32319;SDS011;19080;51.750;5.888;2024-03-29T09:52:20;2.25;;;1.50;;
32319;SDS011;19080;51.750;5.888;2024-03-29T09:54:46;3.60;;;1.45;;
32319;SDS011;19080;51.750;5.888;2024-03-29T09:57:12;1.42;;;1.33;;
32319;SDS011;19080;51.750;5.888;2024-03-29T09:59:38;4.32;;;1.50;;
32319;SDS011;19080;51.750;5.888;2024-03-29T10:02:16;1.95;;;1.30;;
32319;SDS011;19080;51.750;5.888;2024-03-29T10:04:42;2.42;;;1.42;;
32319;SDS011;19080;51.750;5.888;2024-03-29T10:07:10;2.38;;;1.67;;
32319;SDS011;19080;51.750;5.888;2024-03-29T10:09:37;3.53;;;1.48;;
32319;SDS011;19080;51.750;5.888;2024-03-29T10:12:04;4.90;;;2.17;;
32319;SDS011;19080;51.750;5.888;2024-03-29T10:14:30;3.50;;;1.20;;
32319;SDS011;19080;51.750;5.888;2024-03-29T10:16:59;2.45;;;1.50;;
32319;SDS011;19080;51.750;5.888;2024-03-29T10:19:25;4.00;;;1.60;;
32319;SDS011;19080;51.750;5.888;2024-03-29T10:21:51;1.98;;;1.25;;
32319;SDS011;19080;51.750;5.888;2024-03-29T10:24:17;2.70;;;1.40;;
32319;SDS011;19080;51.750;5.888;2024-03-29T10:26:42;3.00;;;1.70;;
32319;SDS011;19080;51.750;5.888;2024-03-29T10:29:09;3.33;;;1.73;;
32319;SDS011;19080;51.750;5.888;2024-03-29T10:31:35;3.22;;;1.52;;
32319;SDS011;19080;51.750;5.888;2024-03-29T10:34:04;3.47;;;1.63;;
32319;SDS011;19080;51.750;5.888;2024-03-29T10:36:31;2.95;;;1.48;;
32319;SDS011;19080;51.750;5.888;2024-03-29T10:39:08;2.22;;;1.48;;
32319;SDS011;19080;51.750;5.888;2024-03-29T10:41:41;5.22;;;1.40;;
32319;SDS011;19080;51.750;5.888;2024-03-29T10:44:08;3.08;;;1.30;;
32319;SDS011;19080;51.750;5.888;2024-03-29T10:46:37;2.47;;;1.38;;
32319;SDS011;19080;51.750;5.888;2024-03-29T10:49:10;1.52;;;1.00;;
32319;SDS011;19080;51.750;5.888;2024-03-29T10:51:40;3.63;;;1.35;;
32319;SDS011;19080;51.750;5.888;2024-03-29T10:54:10;2.17;;;0.98;;
32319;SDS011;19080;51.750;5.888;2024-03-29T10:56:37;1.50;;;1.10;;
32319;SDS011;19080;51.750;5.888;2024-03-29T10:59:11;2.75;;;1.13;;
32319;SDS011;19080;51.750;5.888;2024-03-29T11:01:43;3.78;;;1.33;;
32319;SDS011;19080;51.750;5.888;2024-03-29T11:04:13;4.13;;;1.20;;
32319;SDS011;19080;51.750;5.888;2024-03-29T11:06:44;2.28;;;1.05;;
32319;SDS011;19080;51.750;5.888;2024-03-29T11:09:13;2.65;;;0.90;;
32319;SDS011;19080;51.750;5.888;2024-03-29T11:11:44;1.63;;;1.10;;
32319;SDS011;19080;51.750;5.888;2024-03-29T11:14:24;2.45;;;0.95;;
32319;SDS011;19080;51.750;5.888;2024-03-29T11:16:57;1.70;;;0.90;;
32319;SDS011;19080;51.750;5.888;2024-03-29T11:19:24;1.73;;;1.23;;
32319;SDS011;19080;51.750;5.888;2024-03-29T11:21:50;2.15;;;0.85;;
32319;SDS011;19080;51.750;5.888;2024-03-29T11:24:16;1.67;;;0.80;;
32319;SDS011;19080;51.750;5.888;2024-03-29T11:26:45;1.58;;;0.85;;
32319;SDS011;19080;51.750;5.888;2024-03-29T11:29:21;0.98;;;0.75;;
32319;SDS011;19080;51.750;5.888;2024-03-29T11:31:47;1.13;;;0.73;;
32319;SDS011;19080;51.750;5.888;2024-03-29T11:34:21;2.35;;;0.88;;
32319;SDS011;19080;51.750;5.888;2024-03-29T11:36:46;1.17;;;0.80;;
32319;SDS011;19080;51.750;5.888;2024-03-29T11:39:20;1.15;;;0.70;;
32319;SDS011;19080;51.750;5.888;2024-03-29T11:41:48;2.28;;;0.90;;
32319;SDS011;19080;51.750;5.888;2024-03-29T11:44:14;1.83;;;0.93;;
32319;SDS011;19080;51.750;5.888;2024-03-29T11:46:40;1.13;;;0.68;;
32319;SDS011;19080;51.750;5.888;2024-03-29T11:49:06;2.63;;;0.75;;
32319;SDS011;19080;51.750;5.888;2024-03-29T11:51:32;1.00;;;0.50;;
32319;SDS011;19080;51.750;5.888;2024-03-29T11:53:59;0.57;;;0.30;;
32319;SDS011;19080;51.750;5.888;2024-03-29T11:56:25;1.30;;;0.50;;
32319;SDS011;19080;51.750;5.888;2024-03-29T11:58:51;2.33;;;0.82;;
32319;SDS011;19080;51.750;5.888;2024-03-29T12:01:16;1.58;;;0.60;;
32319;SDS011;19080;51.750;5.888;2024-03-29T12:03:42;1.65;;;0.57;;
32319;SDS011;19080;51.750;5.888;2024-03-29T12:06:09;0.70;;;0.60;;
32319;SDS011;19080;51.750;5.888;2024-03-29T12:08:35;4.22;;;1.00;;
32319;SDS011;19080;51.750;5.888;2024-03-29T12:11:03;1.25;;;0.70;;
32319;SDS011;19080;51.750;5.888;2024-03-29T12:13:29;0.98;;;0.65;;
32319;SDS011;19080;51.750;5.888;2024-03-29T12:15:57;0.70;;;0.40;;
32319;SDS011;19080;51.750;5.888;2024-03-29T12:18:23;1.05;;;0.80;;
32319;SDS011;19080;51.750;5.888;2024-03-29T12:20:51;0.80;;;0.60;;
32319;SDS011;19080;51.750;5.888;2024-03-29T12:23:18;0.60;;;0.50;;
32319;SDS011;19080;51.750;5.888;2024-03-29T12:25:44;1.25;;;0.50;;
32319;SDS011;19080;51.750;5.888;2024-03-29T12:28:11;0.75;;;0.50;;
32319;SDS011;19080;51.750;5.888;2024-03-29T12:30:37;0.93;;;0.60;;
32319;SDS011;19080;51.750;5.888;2024-03-29T12:33:07;1.25;;;0.50;;
32319;SDS011;19080;51.750;5.888;2024-03-29T12:35:37;0.55;;;0.52;;
32319;SDS011;19080;51.750;5.888;2024-03-29T12:38:03;5.93;;;0.85;;
32319;SDS011;19080;51.750;5.888;2024-03-29T12:40:32;1.85;;;1.15;;
32319;SDS011;19080;51.750;5.888;2024-03-29T12:43:04;1.67;;;1.20;;
32319;SDS011;19080;51.750;5.888;2024-03-29T12:45:31;2.55;;;1.30;;
32319;SDS011;19080;51.750;5.888;2024-03-29T12:47:57;1.95;;;1.30;;
32319;SDS011;19080;51.750;5.888;2024-03-29T12:50:32;2.38;;;0.68;;
32319;SDS011;19080;51.750;5.888;2024-03-29T12:52:58;1.27;;;0.80;;
32319;SDS011;19080;51.750;5.888;2024-03-29T12:55:25;3.15;;;1.30;;
32319;SDS011;19080;51.750;5.888;2024-03-29T12:57:57;2.03;;;0.80;;
32319;SDS011;19080;51.750;5.888;2024-03-29T13:00:25;1.58;;;0.88;;
32319;SDS011;19080;51.750;5.888;2024-03-29T13:02:52;1.45;;;0.85;;
32319;SDS011;19080;51.750;5.888;2024-03-29T13:05:18;0.88;;;0.52;;
32319;SDS011;19080;51.750;5.888;2024-03-29T13:07:44;0.77;;;0.50;;
32319;SDS011;19080;51.750;5.888;2024-03-29T13:10:09;2.20;;;0.57;;
32319;SDS011;19080;51.750;5.888;2024-03-29T13:12:39;2.13;;;0.60;;
32319;SDS011;19080;51.750;5.888;2024-03-29T13:15:31;0.45;;;0.40;;
32319;SDS011;19080;51.750;5.888;2024-03-29T13:17:54;0.80;;;0.50;;
32319;SDS011;19080;51.750;5.888;2024-03-29T13:20:21;1.85;;;0.32;;
32319;SDS011;19080;51.750;5.888;2024-03-29T13:22:49;0.90;;;0.22;;
32319;SDS011;19080;51.750;5.888;2024-03-29T13:25:16;0.57;;;0.40;;
32319;SDS011;19080;51.750;5.888;2024-03-29T13:27:42;0.55;;;0.30;;
32319;SDS011;19080;51.750;5.888;2024-03-29T13:30:09;1.98;;;0.40;;
32319;SDS011;19080;51.750;5.888;2024-03-29T13:32:37;0.85;;;0.25;;
32319;SDS011;19080;51.750;5.888;2024-03-29T13:35:05;0.82;;;0.50;;
32319;SDS011;19080;51.750;5.888;2024-03-29T13:37:34;0.20;;;0.20;;
32319;SDS011;19080;51.750;5.888;2024-03-29T13:40:11;0.47;;;0.30;;
32319;SDS011;19080;51.750;5.888;2024-03-29T13:42:38;0.22;;;0.20;;
32319;SDS011;19080;51.750;5.888;2024-03-29T13:45:05;1.63;;;0.60;;
32319;SDS011;19080;51.750;5.888;2024-03-29T13:47:32;0.77;;;0.40;;
32319;SDS011;19080;51.750;5.888;2024-03-29T13:49:58;0.40;;;0.35;;
32319;SDS011;19080;51.750;5.888;2024-03-29T13:52:24;1.48;;;0.50;;
32319;SDS011;19080;51.750;5.888;2024-03-29T13:54:52;1.17;;;0.40;;
32319;SDS011;19080;51.750;5.888;2024-03-29T13:57:17;0.75;;;0.50;;
32319;SDS011;19080;51.750;5.888;2024-03-29T13:59:43;1.40;;;0.40;;
32319;SDS011;19080;51.750;5.888;2024-03-29T14:02:19;2.53;;;0.57;;
32319;SDS011;19080;51.750;5.888;2024-03-29T14:04:45;0.32;;;0.22;;
32319;SDS011;19080;51.750;5.888;2024-03-29T14:07:13;0.32;;;0.30;;
32319;SDS011;19080;51.750;5.888;2024-03-29T14:09:40;1.48;;;0.60;;
32319;SDS011;19080;51.750;5.888;2024-03-29T14:12:06;1.75;;;0.45;;
32319;SDS011;19080;51.750;5.888;2024-03-29T14:14:32;1.10;;;0.40;;
32319;SDS011;19080;51.750;5.888;2024-03-29T14:16:58;0.80;;;0.50;;
32319;SDS011;19080;51.750;5.888;2024-03-29T14:19:32;0.63;;;0.63;;
32319;SDS011;19080;51.750;5.888;2024-03-29T14:21:59;0.40;;;0.30;;
32319;SDS011;19080;51.750;5.888;2024-03-29T14:24:25;0.85;;;0.45;;
32319;SDS011;19080;51.750;5.888;2024-03-29T14:26:52;1.25;;;0.52;;
32319;SDS011;19080;51.750;5.888;2024-03-29T14:29:18;0.77;;;0.35;;
32319;SDS011;19080;51.750;5.888;2024-03-29T14:31:49;2.38;;;0.40;;
32319;SDS011;19080;51.750;5.888;2024-03-29T14:34:16;0.40;;;0.30;;
32319;SDS011;19080;51.750;5.888;2024-03-29T14:36:43;0.88;;;0.50;;
32319;SDS011;19080;51.750;5.888;2024-03-29T14:39:09;0.90;;;0.35;;
32319;SDS011;19080;51.750;5.888;2024-03-29T14:41:38;0.80;;;0.60;;
32319;SDS011;19080;51.750;5.888;2024-03-29T14:44:07;1.05;;;0.40;;
32319;SDS011;19080;51.750;5.888;2024-03-29T14:46:33;0.85;;;0.63;;
32319;SDS011;19080;51.750;5.888;2024-03-29T14:49:00;1.45;;;0.82;;